sensor_id;sensor_type;location;lat;lon;timestamp;P1;durP1;ratioP1;P2;durP2;ratioP2
17714;SDS011;8977;50.902;4.314;2022-09-09T00:02:09;4.10;;;1.05;;
17714;SDS011;8977;50.902;4.314;2022-09-09T00:04:45;2.40;;;1.05;;
17714;SDS011;8977;50.902;4.314;2022-09-09T00:07:21;2.67;;;1.20;;
17714;SDS011;8977;50.902;4.314;2022-09-09T00:09:54;3.22;;;1.17;;
17714;SDS011;8977;50.902;4.314;2022-09-09T00:12:27;3.95;;;1.40;;
17714;SDS011;8977;50.902;4.314;2022-09-09T00:15:03;5.15;;;1.20;;
17714;SDS011;8977;50.902;4.314;2022-09-09T00:17:38;4.03;;;1.17;;
17714;SDS011;8977;50.902;4.314;2022-09-09T00:20:11;3.22;;;1.15;;
17714;SDS011;8977;50.902;4.314;2022-09-09T00:22:42;4.95;;;1.20;;
17714;SDS011;8977;50.902;4.314;2022-09-09T00:25:14;1.75;;;0.98;;
17714;SDS011;8977;50.902;4.314;2022-09-09T00:27:47;5.22;;;1.63;;
17714;SDS011;8977;50.902;4.314;2022-09-09T00:30:16;5.20;;;1.50;;
17714;SDS011;8977;50.902;4.314;2022-09-09T00:32:47;4.55;;;1.38;;
17714;SDS011;8977;50.902;4.314;2022-09-09T00:35:18;5.07;;;1.35;;
17714;SDS011;8977;50.902;4.314;2022-09-09T00:37:50;3.42;;;1.20;;
17714;SDS011;8977;50.902;4.314;2022-09-09T00:40:27;3.50;;;1.20;;
17714;SDS011;8977;50.902;4.314;2022-09-09T00:43:02;3.65;;;1.50;;
17714;SDS011;8977;50.902;4.314;2022-09-09T00:48:50;4.03;;;1.30;;
17714;SDS011;8977;50.902;4.314;2022-09-09T00:51:25;3.85;;;1.20;;
17714;SDS011;8977;50.902;4.314;2022-09-09T00:54:06;3.00;;;1.20;;
17714;SDS011;8977;50.902;4.314;2022-09-09T00:56:45;2.58;;;1.00;;
17714;SDS011;8977;50.902;4.314;2022-09-09T00:59:22;3.58;;;1.35;;
17714;SDS011;8977;50.902;4.314;2022-09-09T01:01:55;4.70;;;1.77;;
17714;SDS011;8977;50.902;4.314;2022-09-09T01:04:23;3.35;;;1.40;;
17714;SDS011;8977;50.902;4.314;2022-09-09T01:06:57;5.43;;;1.95;;
17714;SDS011;8977;50.902;4.314;2022-09-09T01:09:37;3.75;;;0.98;;
17714;SDS011;8977;50.902;4.314;2022-09-09T01:12:14;2.75;;;1.17;;
17714;SDS011;8977;50.902;4.314;2022-09-09T01:14:43;4.13;;;1.35;;
17714;SDS011;8977;50.902;4.314;2022-09-09T01:17:14;3.60;;;1.13;;
17714;SDS011;8977;50.902;4.314;2022-09-09T01:19:49;4.28;;;1.10;;
17714;SDS011;8977;50.902;4.314;2022-09-09T01:22:26;3.88;;;1.20;;
17714;SDS011;8977;50.902;4.314;2022-09-09T01:27:59;3.53;;;1.40;;
17714;SDS011;8977;50.902;4.314;2022-09-09T01:30:28;3.00;;;1.05;;
17714;SDS011;8977;50.902;4.314;2022-09-09T01:32:56;4.88;;;1.33;;
17714;SDS011;8977;50.902;4.314;2022-09-09T01:35:34;4.50;;;1.13;;
17714;SDS011;8977;50.902;4.314;2022-09-09T01:38:07;5.15;;;1.27;;
17714;SDS011;8977;50.902;4.314;2022-09-09T01:40:34;3.22;;;0.93;;
17714;SDS011;8977;50.902;4.314;2022-09-09T01:43:03;2.15;;;1.20;;
17714;SDS011;8977;50.902;4.314;2022-09-09T01:45:31;2.78;;;1.05;;
17714;SDS011;8977;50.902;4.314;2022-09-09T01:47:59;4.20;;;1.58;;
17714;SDS011;8977;50.902;4.314;2022-09-09T01:50:27;4.45;;;1.48;;
17714;SDS011;8977;50.902;4.314;2022-09-09T01:52:54;5.15;;;1.20;;
17714;SDS011;8977;50.902;4.314;2022-09-09T01:55:27;3.47;;;1.20;;
17714;SDS011;8977;50.902;4.314;2022-09-09T01:57:58;5.88;;;1.67;;
17714;SDS011;8977;50.902;4.314;2022-09-09T02:00:34;4.95;;;1.52;;
17714;SDS011;8977;50.902;4.314;2022-09-09T02:03:12;5.07;;;1.40;;
17714;SDS011;8977;50.902;4.314;2022-09-09T02:05:48;4.43;;;1.17;;
17714;SDS011;8977;50.902;4.314;2022-09-09T02:08:22;5.63;;;1.50;;
17714;SDS011;8977;50.902;4.314;2022-09-09T02:10:53;6.90;;;1.88;;
17714;SDS011;8977;50.902;4.314;2022-09-09T02:13:25;5.00;;;1.60;;
17714;SDS011;8977;50.902;4.314;2022-09-09T02:15:53;3.80;;;1.48;;
17714;SDS011;8977;50.902;4.314;2022-09-09T02:18:26;3.15;;;1.38;;
17714;SDS011;8977;50.902;4.314;2022-09-09T02:20:56;2.85;;;1.20;;
17714;SDS011;8977;50.902;4.314;2022-09-09T02:23:25;6.55;;;1.70;;
17714;SDS011;8977;50.902;4.314;2022-09-09T02:25:53;4.25;;;1.58;;
17714;SDS011;8977;50.902;4.314;2022-09-09T02:28:23;7.20;;;1.60;;
17714;SDS011;8977;50.902;4.314;2022-09-09T02:30:54;7.50;;;1.58;;
17714;SDS011;8977;50.902;4.314;2022-09-09T02:33:24;6.35;;;1.83;;
17714;SDS011;8977;50.902;4.314;2022-09-09T02:35:54;6.13;;;1.80;;
17714;SDS011;8977;50.902;4.314;2022-09-09T02:38:27;2.60;;;1.23;;
17714;SDS011;8977;50.902;4.314;2022-09-09T02:40:57;6.30;;;1.52;;
17714;SDS011;8977;50.902;4.314;2022-09-09T02:43:24;4.80;;;1.80;;
17714;SDS011;8977;50.902;4.314;2022-09-09T02:45:53;4.72;;;1.73;;
17714;SDS011;8977;50.902;4.314;2022-09-09T02:48:30;5.78;;;1.52;;
17714;SDS011;8977;50.902;4.314;2022-09-09T02:51:02;5.30;;;1.73;;
17714;SDS011;8977;50.902;4.314;2022-09-09T02:53:38;6.13;;;1.67;;
17714;SDS011;8977;50.902;4.314;2022-09-09T02:56:12;4.50;;;1.38;;
17714;SDS011;8977;50.902;4.314;2022-09-09T02:58:41;6.72;;;2.30;;
17714;SDS011;8977;50.902;4.314;2022-09-09T03:01:10;5.97;;;1.92;;
17714;SDS011;8977;50.902;4.314;2022-09-09T03:03:37;4.72;;;1.70;;
17714;SDS011;8977;50.902;4.314;2022-09-09T03:06:04;6.47;;;1.90;;
17714;SDS011;8977;50.902;4.314;2022-09-09T03:08:31;10.20;;;1.90;;
17714;SDS011;8977;50.902;4.314;2022-09-09T03:10:59;5.75;;;1.73;;
17714;SDS011;8977;50.902;4.314;2022-09-09T03:13:26;5.90;;;1.83;;
17714;SDS011;8977;50.902;4.314;2022-09-09T03:15:53;5.18;;;1.48;;
17714;SDS011;8977;50.902;4.314;2022-09-09T03:18:21;7.22;;;1.80;;
17714;SDS011;8977;50.902;4.314;2022-09-09T03:20:48;3.67;;;1.30;;
17714;SDS011;8977;50.902;4.314;2022-09-09T03:23:16;5.50;;;2.13;;
17714;SDS011;8977;50.902;4.314;2022-09-09T03:25:46;5.22;;;1.73;;
17714;SDS011;8977;50.902;4.314;2022-09-09T03:28:14;8.10;;;2.20;;
17714;SDS011;8977;50.902;4.314;2022-09-09T03:30:40;5.78;;;2.42;;
17714;SDS011;8977;50.902;4.314;2022-09-09T03:33:07;4.97;;;1.40;;
17714;SDS011;8977;50.902;4.314;2022-09-09T03:35:35;8.65;;;2.58;;
17714;SDS011;8977;50.902;4.314;2022-09-09T03:38:02;3.75;;;1.33;;
17714;SDS011;8977;50.902;4.314;2022-09-09T03:40:29;7.00;;;1.42;;
17714;SDS011;8977;50.902;4.314;2022-09-09T03:42:57;5.13;;;1.70;;
17714;SDS011;8977;50.902;4.314;2022-09-09T03:45:24;6.85;;;1.98;;
17714;SDS011;8977;50.902;4.314;2022-09-09T03:47:51;7.05;;;2.08;;
17714;SDS011;8977;50.902;4.314;2022-09-09T03:50:19;5.85;;;2.00;;
17714;SDS011;8977;50.902;4.314;2022-09-09T03:52:47;5.35;;;1.65;;
17714;SDS011;8977;50.902;4.314;2022-09-09T03:55:14;6.63;;;1.80;;
17714;SDS011;8977;50.902;4.314;2022-09-09T03:57:41;4.60;;;1.48;;
17714;SDS011;8977;50.902;4.314;2022-09-09T04:00:08;6.35;;;1.52;;
17714;SDS011;8977;50.902;4.314;2022-09-09T04:02:35;6.97;;;1.73;;
17714;SDS011;8977;50.902;4.314;2022-09-09T04:05:02;5.90;;;1.70;;
17714;SDS011;8977;50.902;4.314;2022-09-09T04:07:29;7.15;;;1.75;;
17714;SDS011;8977;50.902;4.314;2022-09-09T04:09:58;6.63;;;1.73;;
17714;SDS011;8977;50.902;4.314;2022-09-09T04:12:25;8.93;;;2.15;;
17714;SDS011;8977;50.902;4.314;2022-09-09T04:14:52;8.60;;;1.70;;
17714;SDS011;8977;50.902;4.314;2022-09-09T04:17:19;5.90;;;1.75;;
17714;SDS011;8977;50.902;4.314;2022-09-09T04:19:46;8.52;;;1.67;;
17714;SDS011;8977;50.902;4.314;2022-09-09T04:22:13;6.43;;;1.70;;
17714;SDS011;8977;50.902;4.314;2022-09-09T04:24:41;7.18;;;2.30;;
17714;SDS011;8977;50.902;4.314;2022-09-09T04:27:09;5.72;;;1.48;;
17714;SDS011;8977;50.902;4.314;2022-09-09T04:29:36;6.53;;;1.95;;
17714;SDS011;8977;50.902;4.314;2022-09-09T04:32:03;5.05;;;1.60;;
17714;SDS011;8977;50.902;4.314;2022-09-09T04:34:30;6.75;;;1.85;;
17714;SDS011;8977;50.902;4.314;2022-09-09T04:36:57;5.55;;;1.98;;
17714;SDS011;8977;50.902;4.314;2022-09-09T04:39:25;7.32;;;2.22;;
17714;SDS011;8977;50.902;4.314;2022-09-09T04:41:52;6.82;;;1.90;;
17714;SDS011;8977;50.902;4.314;2022-09-09T04:44:20;5.43;;;1.73;;
17714;SDS011;8977;50.902;4.314;2022-09-09T04:46:47;8.00;;;1.90;;
17714;SDS011;8977;50.902;4.314;2022-09-09T04:49:14;5.35;;;1.70;;
17714;SDS011;8977;50.902;4.314;2022-09-09T04:51:41;7.28;;;2.17;;
17714;SDS011;8977;50.902;4.314;2022-09-09T04:54:08;7.50;;;2.05;;
17714;SDS011;8977;50.902;4.314;2022-09-09T04:56:35;6.43;;;2.17;;
17714;SDS011;8977;50.902;4.314;2022-09-09T04:59:02;7.40;;;2.13;;
17714;SDS011;8977;50.902;4.314;2022-09-09T05:01:30;8.18;;;2.80;;
17714;SDS011;8977;50.902;4.314;2022-09-09T05:03:57;10.15;;;2.50;;
17714;SDS011;8977;50.902;4.314;2022-09-09T05:06:24;6.03;;;2.78;;
17714;SDS011;8977;50.902;4.314;2022-09-09T05:08:51;7.70;;;2.15;;
17714;SDS011;8977;50.902;4.314;2022-09-09T05:11:19;7.20;;;2.10;;
17714;SDS011;8977;50.902;4.314;2022-09-09T05:13:48;7.82;;;2.70;;
17714;SDS011;8977;50.902;4.314;2022-09-09T05:16:15;7.80;;;2.25;;
17714;SDS011;8977;50.902;4.314;2022-09-09T05:18:44;5.30;;;1.90;;
17714;SDS011;8977;50.902;4.314;2022-09-09T05:21:12;5.55;;;1.73;;
17714;SDS011;8977;50.902;4.314;2022-09-09T05:23:40;8.02;;;2.00;;
17714;SDS011;8977;50.902;4.314;2022-09-09T05:26:09;4.63;;;1.50;;
17714;SDS011;8977;50.902;4.314;2022-09-09T05:28:39;8.48;;;2.30;;
17714;SDS011;8977;50.902;4.314;2022-09-09T05:31:07;5.82;;;1.85;;
17714;SDS011;8977;50.902;4.314;2022-09-09T05:33:36;10.00;;;2.42;;
17714;SDS011;8977;50.902;4.314;2022-09-09T05:36:07;8.77;;;2.13;;
17714;SDS011;8977;50.902;4.314;2022-09-09T05:38:35;5.85;;;2.33;;
17714;SDS011;8977;50.902;4.314;2022-09-09T05:41:03;7.68;;;2.10;;
17714;SDS011;8977;50.902;4.314;2022-09-09T05:43:30;9.10;;;2.35;;
17714;SDS011;8977;50.902;4.314;2022-09-09T05:46:01;6.22;;;2.10;;
17714;SDS011;8977;50.902;4.314;2022-09-09T05:48:29;6.55;;;2.13;;
17714;SDS011;8977;50.902;4.314;2022-09-09T05:50:57;9.80;;;2.47;;
17714;SDS011;8977;50.902;4.314;2022-09-09T05:53:25;5.97;;;1.70;;
17714;SDS011;8977;50.902;4.314;2022-09-09T05:55:59;10.13;;;2.28;;
17714;SDS011;8977;50.902;4.314;2022-09-09T05:58:28;5.30;;;2.05;;
17714;SDS011;8977;50.902;4.314;2022-09-09T06:01:00;7.68;;;2.00;;
17714;SDS011;8977;50.902;4.314;2022-09-09T06:03:27;9.32;;;2.10;;
17714;SDS011;8977;50.902;4.314;2022-09-09T06:05:58;7.00;;;2.00;;
17714;SDS011;8977;50.902;4.314;2022-09-09T06:08:27;5.90;;;2.22;;
17714;SDS011;8977;50.902;4.314;2022-09-09T06:11:00;8.82;;;2.17;;
17714;SDS011;8977;50.902;4.314;2022-09-09T06:13:28;7.78;;;1.90;;
17714;SDS011;8977;50.902;4.314;2022-09-09T06:15:56;11.38;;;2.53;;
17714;SDS011;8977;50.902;4.314;2022-09-09T06:18:23;7.25;;;2.33;;
17714;SDS011;8977;50.902;4.314;2022-09-09T06:20:54;7.45;;;2.28;;
17714;SDS011;8977;50.902;4.314;2022-09-09T06:23:21;8.25;;;2.15;;
17714;SDS011;8977;50.902;4.314;2022-09-09T06:25:50;7.50;;;1.83;;
17714;SDS011;8977;50.902;4.314;2022-09-09T06:28:17;7.35;;;1.95;;
17714;SDS011;8977;50.902;4.314;2022-09-09T06:30:44;8.45;;;2.35;;
17714;SDS011;8977;50.902;4.314;2022-09-09T06:33:12;5.07;;;1.90;;
17714;SDS011;8977;50.902;4.314;2022-09-09T06:35:38;6.13;;;2.13;;
17714;SDS011;8977;50.902;4.314;2022-09-09T06:38:05;6.50;;;1.80;;
17714;SDS011;8977;50.902;4.314;2022-09-09T06:40:33;6.65;;;1.90;;
17714;SDS011;8977;50.902;4.314;2022-09-09T06:43:01;8.50;;;2.15;;
17714;SDS011;8977;50.902;4.314;2022-09-09T06:45:28;6.80;;;2.03;;
17714;SDS011;8977;50.902;4.314;2022-09-09T06:47:56;5.78;;;1.95;;
17714;SDS011;8977;50.902;4.314;2022-09-09T06:50:23;5.07;;;1.80;;
17714;SDS011;8977;50.902;4.314;2022-09-09T06:52:50;6.82;;;2.25;;
17714;SDS011;8977;50.902;4.314;2022-09-09T06:55:17;7.25;;;2.10;;
17714;SDS011;8977;50.902;4.314;2022-09-09T06:57:44;6.25;;;2.00;;
17714;SDS011;8977;50.902;4.314;2022-09-09T07:00:13;8.57;;;2.63;;
17714;SDS011;8977;50.902;4.314;2022-09-09T07:02:40;5.30;;;1.75;;
17714;SDS011;8977;50.902;4.314;2022-09-09T07:05:07;5.70;;;2.00;;
17714;SDS011;8977;50.902;4.314;2022-09-09T07:07:34;7.28;;;2.13;;
17714;SDS011;8977;50.902;4.314;2022-09-09T07:10:01;7.10;;;1.80;;
17714;SDS011;8977;50.902;4.314;2022-09-09T07:12:29;8.68;;;2.17;;
17714;SDS011;8977;50.902;4.314;2022-09-09T07:14:56;7.78;;;1.73;;
17714;SDS011;8977;50.902;4.314;2022-09-09T07:17:24;7.72;;;2.20;;
17714;SDS011;8977;50.902;4.314;2022-09-09T07:19:51;7.22;;;2.05;;
17714;SDS011;8977;50.902;4.314;2022-09-09T07:22:18;7.05;;;1.73;;
17714;SDS011;8977;50.902;4.314;2022-09-09T07:24:45;6.35;;;1.70;;
17714;SDS011;8977;50.902;4.314;2022-09-09T07:27:12;6.60;;;2.20;;
17714;SDS011;8977;50.902;4.314;2022-09-09T07:29:38;6.88;;;2.42;;
17714;SDS011;8977;50.902;4.314;2022-09-09T07:32:05;7.20;;;1.85;;
17714;SDS011;8977;50.902;4.314;2022-09-09T07:34:33;8.50;;;2.00;;
17714;SDS011;8977;50.902;4.314;2022-09-09T07:37:00;9.07;;;1.75;;
17714;SDS011;8977;50.902;4.314;2022-09-09T07:39:27;7.72;;;2.35;;
17714;SDS011;8977;50.902;4.314;2022-09-09T07:41:54;9.20;;;2.45;;
17714;SDS011;8977;50.902;4.314;2022-09-09T07:44:21;6.65;;;1.80;;
17714;SDS011;8977;50.902;4.314;2022-09-09T07:46:51;8.35;;;2.28;;
17714;SDS011;8977;50.902;4.314;2022-09-09T07:49:19;6.05;;;1.83;;
17714;SDS011;8977;50.902;4.314;2022-09-09T07:51:47;7.25;;;2.08;;
17714;SDS011;8977;50.902;4.314;2022-09-09T07:54:15;4.65;;;1.40;;
17714;SDS011;8977;50.902;4.314;2022-09-09T07:56:45;9.88;;;2.35;;
17714;SDS011;8977;50.902;4.314;2022-09-09T07:59:13;4.93;;;1.95;;
17714;SDS011;8977;50.902;4.314;2022-09-09T08:01:40;6.72;;;1.90;;
17714;SDS011;8977;50.902;4.314;2022-09-09T08:04:09;6.28;;;1.95;;
17714;SDS011;8977;50.902;4.314;2022-09-09T08:06:41;6.00;;;1.80;;
17714;SDS011;8977;50.902;4.314;2022-09-09T08:09:10;6.50;;;1.90;;
17714;SDS011;8977;50.902;4.314;2022-09-09T08:11:37;4.18;;;1.65;;
17714;SDS011;8977;50.902;4.314;2022-09-09T08:14:05;6.80;;;2.13;;
17714;SDS011;8977;50.902;4.314;2022-09-09T08:16:34;4.18;;;1.83;;
17714;SDS011;8977;50.902;4.314;2022-09-09T08:19:02;9.68;;;2.40;;
17714;SDS011;8977;50.902;4.314;2022-09-09T08:21:31;7.97;;;2.10;;
17714;SDS011;8977;50.902;4.314;2022-09-09T08:23:58;9.95;;;2.47;;
17714;SDS011;8977;50.902;4.314;2022-09-09T08:26:29;6.38;;;2.33;;
17714;SDS011;8977;50.902;4.314;2022-09-09T08:28:57;8.60;;;2.38;;
17714;SDS011;8977;50.902;4.314;2022-09-09T08:31:25;6.20;;;1.70;;
17714;SDS011;8977;50.902;4.314;2022-09-09T08:33:54;5.80;;;2.05;;
17714;SDS011;8977;50.902;4.314;2022-09-09T08:36:22;7.22;;;2.00;;
17714;SDS011;8977;50.902;4.314;2022-09-09T08:38:51;5.90;;;1.88;;
17714;SDS011;8977;50.902;4.314;2022-09-09T08:44:21;5.78;;;1.90;;
17714;SDS011;8977;50.902;4.314;2022-09-09T08:46:57;6.85;;;2.08;;
17714;SDS011;8977;50.902;4.314;2022-09-09T08:49:41;6.43;;;2.10;;
17714;SDS011;8977;50.902;4.314;2022-09-09T08:52:16;5.88;;;1.85;;
17714;SDS011;8977;50.902;4.314;2022-09-09T08:54:47;7.00;;;2.58;;
17714;SDS011;8977;50.902;4.314;2022-09-09T08:57:18;5.75;;;2.17;;
17714;SDS011;8977;50.902;4.314;2022-09-09T08:59:51;10.32;;;2.65;;
17714;SDS011;8977;50.902;4.314;2022-09-09T09:02:21;7.82;;;2.28;;
17714;SDS011;8977;50.902;4.314;2022-09-09T09:04:58;5.57;;;2.20;;
17714;SDS011;8977;50.902;4.314;2022-09-09T09:07:42;4.40;;;2.05;;
17714;SDS011;8977;50.902;4.314;2022-09-09T09:10:20;7.28;;;2.28;;
17714;SDS011;8977;50.902;4.314;2022-09-09T09:12:58;5.50;;;2.10;;
17714;SDS011;8977;50.902;4.314;2022-09-09T09:15:27;6.30;;;1.92;;
17714;SDS011;8977;50.902;4.314;2022-09-09T09:18:01;5.97;;;2.33;;
17714;SDS011;8977;50.902;4.314;2022-09-09T09:20:30;7.63;;;2.00;;
17714;SDS011;8977;50.902;4.314;2022-09-09T09:23:04;5.60;;;1.80;;
17714;SDS011;8977;50.902;4.314;2022-09-09T09:25:33;5.50;;;2.08;;
17714;SDS011;8977;50.902;4.314;2022-09-09T09:28:10;7.25;;;2.15;;
17714;SDS011;8977;50.902;4.314;2022-09-09T09:30:42;7.72;;;2.00;;
17714;SDS011;8977;50.902;4.314;2022-09-09T09:33:15;5.20;;;1.90;;
17714;SDS011;8977;50.902;4.314;2022-09-09T09:35:45;7.65;;;2.10;;
17714;SDS011;8977;50.902;4.314;2022-09-09T09:38:16;8.10;;;2.65;;
17714;SDS011;8977;50.902;4.314;2022-09-09T09:40:48;7.10;;;2.03;;
17714;SDS011;8977;50.902;4.314;2022-09-09T09:43:22;6.32;;;1.88;;
17714;SDS011;8977;50.902;4.314;2022-09-09T09:45:52;7.25;;;2.08;;
17714;SDS011;8977;50.902;4.314;2022-09-09T09:48:20;8.75;;;1.95;;
17714;SDS011;8977;50.902;4.314;2022-09-09T09:50:48;6.50;;;2.17;;
17714;SDS011;8977;50.902;4.314;2022-09-09T09:53:18;4.85;;;2.28;;
17714;SDS011;8977;50.902;4.314;2022-09-09T09:55:50;6.18;;;2.00;;
17714;SDS011;8977;50.902;4.314;2022-09-09T09:58:21;5.68;;;1.92;;
17714;SDS011;8977;50.902;4.314;2022-09-09T10:00:49;6.95;;;2.05;;
17714;SDS011;8977;50.902;4.314;2022-09-09T10:03:23;7.15;;;1.70;;
17714;SDS011;8977;50.902;4.314;2022-09-09T10:05:52;5.03;;;1.80;;
17714;SDS011;8977;50.902;4.314;2022-09-09T10:08:21;6.28;;;1.88;;
17714;SDS011;8977;50.902;4.314;2022-09-09T10:10:54;5.47;;;1.70;;
17714;SDS011;8977;50.902;4.314;2022-09-09T10:13:48;5.95;;;1.63;;
17714;SDS011;8977;50.902;4.314;2022-09-09T10:16:27;4.90;;;1.77;;
17714;SDS011;8977;50.902;4.314;2022-09-09T10:19:05;6.25;;;1.80;;
17714;SDS011;8977;50.902;4.314;2022-09-09T10:21:49;5.15;;;1.42;;
17714;SDS011;8977;50.902;4.314;2022-09-09T10:24:31;6.40;;;2.47;;
17714;SDS011;8977;50.902;4.314;2022-09-09T10:27:16;4.55;;;1.60;;
17714;SDS011;8977;50.902;4.314;2022-09-09T10:29:56;3.08;;;1.25;;
17714;SDS011;8977;50.902;4.314;2022-09-09T10:32:36;5.68;;;1.75;;
17714;SDS011;8977;50.902;4.314;2022-09-09T10:35:10;4.57;;;1.63;;
17714;SDS011;8977;50.902;4.314;2022-09-09T10:37:48;4.03;;;1.83;;
17714;SDS011;8977;50.902;4.314;2022-09-09T10:40:37;5.00;;;1.73;;
17714;SDS011;8977;50.902;4.314;2022-09-09T10:43:13;5.30;;;1.67;;
17714;SDS011;8977;50.902;4.314;2022-09-09T10:45:54;4.60;;;1.48;;
17714;SDS011;8977;50.902;4.314;2022-09-09T10:48:30;6.40;;;1.98;;
17714;SDS011;8977;50.902;4.314;2022-09-09T10:51:11;4.53;;;1.65;;
17714;SDS011;8977;50.902;4.314;2022-09-09T10:53:48;5.20;;;1.92;;
17714;SDS011;8977;50.902;4.314;2022-09-09T10:56:20;6.18;;;1.95;;
17714;SDS011;8977;50.902;4.314;2022-09-09T10:58:50;6.82;;;2.33;;
17714;SDS011;8977;50.902;4.314;2022-09-09T11:01:23;4.90;;;1.80;;
17714;SDS011;8977;50.902;4.314;2022-09-09T11:03:54;5.25;;;1.83;;
17714;SDS011;8977;50.902;4.314;2022-09-09T11:06:28;4.45;;;1.50;;
17714;SDS011;8977;50.902;4.314;2022-09-09T11:09:00;4.22;;;1.63;;
17714;SDS011;8977;50.902;4.314;2022-09-09T11:11:32;5.20;;;1.80;;
17714;SDS011;8977;50.902;4.314;2022-09-09T11:14:03;4.65;;;1.75;;
17714;SDS011;8977;50.902;4.314;2022-09-09T11:16:38;5.60;;;1.70;;
17714;SDS011;8977;50.902;4.314;2022-09-09T11:19:11;11.10;;;1.98;;
17714;SDS011;8977;50.902;4.314;2022-09-09T11:21:44;4.43;;;1.35;;
17714;SDS011;8977;50.902;4.314;2022-09-09T11:24:13;6.05;;;1.70;;
17714;SDS011;8977;50.902;4.314;2022-09-09T11:26:47;4.03;;;1.60;;
17714;SDS011;8977;50.902;4.314;2022-09-09T11:29:33;4.43;;;1.60;;
17714;SDS011;8977;50.902;4.314;2022-09-09T11:32:31;5.90;;;1.45;;
17714;SDS011;8977;50.902;4.314;2022-09-09T11:35:16;3.38;;;1.13;;
17714;SDS011;8977;50.902;4.314;2022-09-09T11:38:00;4.05;;;1.38;;
17714;SDS011;8977;50.902;4.314;2022-09-09T11:40:43;3.17;;;1.25;;
17714;SDS011;8977;50.902;4.314;2022-09-09T11:43:11;4.63;;;1.83;;
17714;SDS011;8977;50.902;4.314;2022-09-09T11:45:41;3.95;;;1.55;;
17714;SDS011;8977;50.902;4.314;2022-09-09T11:48:25;3.58;;;1.40;;
17714;SDS011;8977;50.902;4.314;2022-09-09T11:50:59;4.65;;;1.60;;
17714;SDS011;8977;50.902;4.314;2022-09-09T11:53:30;5.25;;;1.35;;
17714;SDS011;8977;50.902;4.314;2022-09-09T11:58:54;6.15;;;1.92;;
17714;SDS011;8977;50.902;4.314;2022-09-09T12:01:27;3.38;;;1.65;;
17714;SDS011;8977;50.902;4.314;2022-09-09T12:04:05;3.33;;;1.40;;
17714;SDS011;8977;50.902;4.314;2022-09-09T12:06:44;3.70;;;1.58;;
17714;SDS011;8977;50.902;4.314;2022-09-09T12:09:17;4.15;;;1.60;;
17714;SDS011;8977;50.902;4.314;2022-09-09T12:11:48;4.57;;;1.73;;
17714;SDS011;8977;50.902;4.314;2022-09-09T12:14:19;7.22;;;1.48;;
17714;SDS011;8977;50.902;4.314;2022-09-09T12:17:08;3.05;;;1.60;;
17714;SDS011;8977;50.902;4.314;2022-09-09T12:19:44;4.90;;;1.75;;
17714;SDS011;8977;50.902;4.314;2022-09-09T12:22:15;5.18;;;1.70;;
17714;SDS011;8977;50.902;4.314;2022-09-09T12:24:51;3.15;;;1.70;;
17714;SDS011;8977;50.902;4.314;2022-09-09T12:27:24;3.88;;;1.40;;
17714;SDS011;8977;50.902;4.314;2022-09-09T12:29:58;6.32;;;1.80;;
17714;SDS011;8977;50.902;4.314;2022-09-09T12:32:31;5.28;;;1.95;;
17714;SDS011;8977;50.902;4.314;2022-09-09T12:34:59;4.93;;;1.75;;
17714;SDS011;8977;50.902;4.314;2022-09-09T12:37:31;5.13;;;1.45;;
17714;SDS011;8977;50.902;4.314;2022-09-09T12:40:02;4.35;;;1.70;;
17714;SDS011;8977;50.902;4.314;2022-09-09T12:42:30;5.00;;;1.70;;
17714;SDS011;8977;50.902;4.314;2022-09-09T12:44:59;3.55;;;1.48;;
17714;SDS011;8977;50.902;4.314;2022-09-09T12:47:35;4.28;;;1.58;;
17714;SDS011;8977;50.902;4.314;2022-09-09T12:50:16;3.38;;;1.35;;
17714;SDS011;8977;50.902;4.314;2022-09-09T12:52:45;4.32;;;1.30;;
17714;SDS011;8977;50.902;4.314;2022-09-09T12:55:16;5.43;;;1.60;;
17714;SDS011;8977;50.902;4.314;2022-09-09T12:57:46;3.10;;;1.38;;
17714;SDS011;8977;50.902;4.314;2022-09-09T13:00:16;3.40;;;1.30;;
17714;SDS011;8977;50.902;4.314;2022-09-09T13:02:46;4.07;;;1.55;;
17714;SDS011;8977;50.902;4.314;2022-09-09T13:05:17;4.85;;;1.35;;
17714;SDS011;8977;50.902;4.314;2022-09-09T13:07:47;3.33;;;1.13;;
17714;SDS011;8977;50.902;4.314;2022-09-09T13:10:15;4.22;;;1.42;;
17714;SDS011;8977;50.902;4.314;2022-09-09T13:12:49;3.05;;;1.10;;
17714;SDS011;8977;50.902;4.314;2022-09-09T13:15:18;4.10;;;1.48;;
17714;SDS011;8977;50.902;4.314;2022-09-09T13:17:51;2.53;;;1.20;;
17714;SDS011;8977;50.902;4.314;2022-09-09T13:20:22;3.63;;;1.40;;
17714;SDS011;8977;50.902;4.314;2022-09-09T13:22:50;2.80;;;1.35;;
17714;SDS011;8977;50.902;4.314;2022-09-09T13:25:20;3.47;;;1.48;;
17714;SDS011;8977;50.902;4.314;2022-09-09T13:27:57;5.03;;;1.45;;
17714;SDS011;8977;50.902;4.314;2022-09-09T13:30:26;4.20;;;1.52;;
17714;SDS011;8977;50.902;4.314;2022-09-09T13:33:01;4.43;;;1.58;;
17714;SDS011;8977;50.902;4.314;2022-09-09T13:35:31;2.40;;;1.23;;
17714;SDS011;8977;50.902;4.314;2022-09-09T13:37:58;3.33;;;1.17;;
17714;SDS011;8977;50.902;4.314;2022-09-09T13:40:32;3.40;;;1.40;;
17714;SDS011;8977;50.902;4.314;2022-09-09T13:42:59;2.97;;;1.52;;
17714;SDS011;8977;50.902;4.314;2022-09-09T13:45:27;5.43;;;1.55;;
17714;SDS011;8977;50.902;4.314;2022-09-09T13:47:54;3.10;;;1.60;;
17714;SDS011;8977;50.902;4.314;2022-09-09T13:50:22;3.35;;;1.40;;
17714;SDS011;8977;50.902;4.314;2022-09-09T13:52:53;5.00;;;1.50;;
17714;SDS011;8977;50.902;4.314;2022-09-09T13:55:23;5.68;;;1.45;;
17714;SDS011;8977;50.902;4.314;2022-09-09T13:57:51;3.05;;;1.27;;
17714;SDS011;8977;50.902;4.314;2022-09-09T14:00:19;4.80;;;1.40;;
17714;SDS011;8977;50.902;4.314;2022-09-09T14:02:46;4.35;;;1.13;;
17714;SDS011;8977;50.902;4.314;2022-09-09T14:05:13;2.80;;;1.00;;
17714;SDS011;8977;50.902;4.314;2022-09-09T14:07:41;4.03;;;1.65;;
17714;SDS011;8977;50.902;4.314;2022-09-09T14:10:10;4.45;;;1.17;;
17714;SDS011;8977;50.902;4.314;2022-09-09T14:12:37;4.43;;;1.30;;
17714;SDS011;8977;50.902;4.314;2022-09-09T14:15:05;3.35;;;1.25;;
17714;SDS011;8977;50.902;4.314;2022-09-09T14:17:33;3.67;;;1.45;;
17714;SDS011;8977;50.902;4.314;2022-09-09T14:20:01;4.65;;;1.90;;
17714;SDS011;8977;50.902;4.314;2022-09-09T14:22:28;4.70;;;1.33;;
17714;SDS011;8977;50.902;4.314;2022-09-09T14:24:55;3.35;;;1.25;;
17714;SDS011;8977;50.902;4.314;2022-09-09T14:27:24;2.97;;;1.27;;
17714;SDS011;8977;50.902;4.314;2022-09-09T14:29:52;3.45;;;1.30;;
17714;SDS011;8977;50.902;4.314;2022-09-09T14:32:19;5.93;;;1.88;;
17714;SDS011;8977;50.902;4.314;2022-09-09T14:34:46;4.38;;;1.75;;
17714;SDS011;8977;50.902;4.314;2022-09-09T14:37:14;3.55;;;1.40;;
17714;SDS011;8977;50.902;4.314;2022-09-09T14:39:41;3.47;;;1.40;;
17714;SDS011;8977;50.902;4.314;2022-09-09T14:42:09;6.15;;;1.50;;
17714;SDS011;8977;50.902;4.314;2022-09-09T14:44:38;5.65;;;1.63;;
17714;SDS011;8977;50.902;4.314;2022-09-09T14:47:05;5.03;;;1.50;;
17714;SDS011;8977;50.902;4.314;2022-09-09T14:49:33;2.22;;;1.45;;
17714;SDS011;8977;50.902;4.314;2022-09-09T14:52:00;2.55;;;1.50;;
17714;SDS011;8977;50.902;4.314;2022-09-09T14:54:27;4.10;;;1.42;;
17714;SDS011;8977;50.902;4.314;2022-09-09T14:56:55;3.65;;;1.40;;
17714;SDS011;8977;50.902;4.314;2022-09-09T14:59:22;3.85;;;1.70;;
17714;SDS011;8977;50.902;4.314;2022-09-09T15:01:50;4.57;;;1.67;;
17714;SDS011;8977;50.902;4.314;2022-09-09T15:04:18;5.28;;;1.50;;
17714;SDS011;8977;50.902;4.314;2022-09-09T15:06:45;2.42;;;1.30;;
17714;SDS011;8977;50.902;4.314;2022-09-09T15:09:14;5.63;;;1.20;;
17714;SDS011;8977;50.902;4.314;2022-09-09T15:11:41;1.85;;;1.08;;
17714;SDS011;8977;50.902;4.314;2022-09-09T15:14:09;3.75;;;1.45;;
17714;SDS011;8977;50.902;4.314;2022-09-09T15:16:37;2.47;;;1.30;;
17714;SDS011;8977;50.902;4.314;2022-09-09T15:19:06;2.17;;;1.45;;
17714;SDS011;8977;50.902;4.314;2022-09-09T15:21:34;2.17;;;1.15;;
17714;SDS011;8977;50.902;4.314;2022-09-09T15:24:02;5.00;;;1.58;;
17714;SDS011;8977;50.902;4.314;2022-09-09T15:26:32;4.88;;;1.45;;
17714;SDS011;8977;50.902;4.314;2022-09-09T15:28:59;3.25;;;1.42;;
17714;SDS011;8977;50.902;4.314;2022-09-09T15:31:30;3.63;;;1.52;;
17714;SDS011;8977;50.902;4.314;2022-09-09T15:33:57;2.78;;;1.50;;